Time;durP1;ratioP1;P1;durP2;ratioP2;P2;SDS_P1;SDS_P2;PMS_P1;PMS_P2;Temp;Humidity;BMP_temperature;BMP_pressure;BME280_temperature;BME280_humidity;BME280_pressure;Samples;Min_cycle;Max_cycle;Signal;HPM_P1;HPM_P2
2022/08/24 00:01:05;;;;;;;4.88;3.70;;;14.70;88.90;;;;;;5101682;28;20222;-86
2022/08/24 00:03:35;;;;;;;5.50;3.92;;;14.60;88.80;;;;;;5101585;28;20207;-86
2022/08/24 00:06:03;;;;;;;4.25;3.70;;;14.60;89.10;;;;;;5103796;28;20204;-87
2022/08/24 00:08:31;;;;;;;6.07;3.95;;;14.60;90.30;;;;;;5098646;28;20201;-86
2022/08/24 00:10:58;;;;;;;6.20;3.70;;;14.60;90.50;;;;;;5108826;28;20252;-87
2022/08/24 00:13:27;;;;;;;5.93;3.85;;;14.60;90.90;;;;;;5115573;28;20519;-86
2022/08/24 00:15:54;;;;;;;4.68;3.40;;;14.60;90.30;;;;;;5096171;28;20224;-86
2022/08/24 00:18:21;;;;;;;5.47;3.50;;;14.70;90.50;;;;;;5097786;28;20204;-86
2022/08/24 00:20:48;;;;;;;5.03;3.25;;;14.70;90.70;;;;;;5115399;28;20295;-86
2022/08/24 00:23:16;;;;;;;4.47;3.50;;;14.80;89.60;;;;;;5100722;28;20196;-86
2022/08/24 00:25:43;;;;;;;4.30;3.90;;;14.80;90.30;;;;;;5101730;28;20203;-86
2022/08/24 00:28:11;;;;;;;4.70;3.47;;;14.90;87.40;;;;;;5104503;28;20204;-86
2022/08/24 00:30:39;;;;;;;6.30;3.30;;;14.90;87.20;;;;;;5094854;28;20203;-86
2022/08/24 00:33:13;;;;;;;3.90;3.35;;;15.00;86.50;;;;;;5108260;28;20196;-86
2022/08/24 00:35:41;;;;;;;5.18;3.28;;;15.00;86.00;;;;;;5099450;28;20686;-86
2022/08/24 00:38:08;;;;;;;4.82;3.30;;;15.00;86.80;;;;;;5113475;28;20291;-86
2022/08/24 00:40:39;;;;;;;3.97;3.50;;;15.00;86.50;;;;;;5110260;28;20279;-86
2022/08/24 00:43:10;;;;;;;4.68;3.42;;;14.80;86.10;;;;;;5096437;28;20200;-86
2022/08/24 00:45:43;;;;;;;7.72;3.30;;;14.70;87.60;;;;;;5100849;28;20629;-86
2022/08/24 00:48:15;;;;;;;6.80;3.47;;;14.60;88.60;;;;;;5100846;28;20196;-87
2022/08/24 00:50:46;;;;;;;5.78;3.53;;;14.40;89.90;;;;;;5108809;28;20200;-86
2022/08/24 00:53:33;;;;;;;5.38;3.30;;;14.30;89.80;;;;;;5104658;28;20232;-86
2022/08/24 00:56:10;;;;;;;4.15;3.22;;;14.20;90.20;;;;;;5098857;28;20215;-86
2022/08/24 00:58:41;;;;;;;6.63;3.35;;;14.20;90.30;;;;;;5108534;28;20204;-86
2022/08/24 01:01:12;;;;;;;3.78;3.33;;;14.20;90.60;;;;;;5097570;28;20209;-86
2022/08/24 01:03:40;;;;;;;3.97;3.55;;;14.20;90.50;;;;;;5098571;28;20212;-87
2022/08/24 01:06:07;;;;;;;4.07;3.47;;;14.20;90.70;;;;;;5095778;28;20552;-86
2022/08/24 01:08:35;;;;;;;5.00;3.55;;;14.20;90.60;;;;;;5109907;28;20203;-86
2022/08/24 01:11:06;;;;;;;4.47;3.63;;;14.10;90.50;;;;;;5110230;28;20192;-86
2022/08/24 01:13:33;;;;;;;5.47;3.75;;;14.00;90.70;;;;;;5100327;28;20226;-86
2022/08/24 01:16:05;;;;;;;4.72;3.60;;;13.90;91.20;;;;;;5104678;28;20242;-86
2022/08/24 01:18:51;;;;;;;5.75;3.78;;;13.90;91.20;;;;;;5113341;28;20285;-86
2022/08/24 01:21:20;;;;;;;7.18;4.20;;;13.80;91.20;;;;;;5104015;28;20200;-86
2022/08/24 01:23:51;;;;;;;5.13;3.95;;;13.90;91.20;;;;;;5095549;28;20208;-86
2022/08/24 01:26:22;;;;;;;5.47;4.05;;;13.80;91.50;;;;;;5097718;28;20731;-86
2022/08/24 01:28:57;;;;;;;7.65;3.80;;;13.80;91.20;;;;;;5112506;28;20651;-86
2022/08/24 01:31:24;;;;;;;6.63;3.45;;;13.80;91.20;;;;;;5096304;28;20233;-86
2022/08/24 01:33:53;;;;;;;7.78;3.63;;;13.70;91.40;;;;;;5104893;28;20202;-85
2022/08/24 01:36:29;;;;;;;6.18;3.47;;;13.70;91.50;;;;;;5101495;28;20223;-86
2022/08/24 01:39:08;;;;;;;6.85;3.67;;;13.70;91.70;;;;;;5109790;28;20211;-86
2022/08/24 01:41:35;;;;;;;5.00;3.20;;;13.90;91.20;;;;;;5108191;28;20200;-86
2022/08/24 01:44:02;;;;;;;4.75;3.25;;;13.90;91.20;;;;;;5099250;28;20251;-86
2022/08/24 01:46:29;;;;;;;4.00;3.47;;;13.90;91.20;;;;;;5106025;28;20697;-85
2022/08/24 01:49:04;;;;;;;4.00;3.60;;;13.90;91.10;;;;;;5097462;28;20211;-86
2022/08/24 01:51:33;;;;;;;4.80;3.25;;;13.80;91.20;;;;;;5096298;28;20204;-86
2022/08/24 01:54:03;;;;;;;5.18;3.20;;;13.70;91.20;;;;;;5108469;28;20200;-86
2022/08/24 01:56:30;;;;;;;3.80;3.30;;;13.70;91.20;;;;;;5099128;28;20220;-86
2022/08/24 01:58:58;;;;;;;3.53;3.17;;;13.70;91.20;;;;;;5112157;28;20191;-86
2022/08/24 02:01:27;;;;;;;3.83;3.40;;;13.60;91.10;;;;;;5107244;28;20214;-86
2022/08/24 02:03:54;;;;;;;3.45;3.15;;;13.60;91.10;;;;;;5105993;28;20197;-86
2022/08/24 02:06:22;;;;;;;6.65;3.45;;;13.60;91.70;;;;;;5106117;28;20296;-86
2022/08/24 02:08:49;;;;;;;3.70;3.25;;;13.60;91.10;;;;;;5102554;28;20206;-86
2022/08/24 02:11:17;;;;;;;5.40;4.22;;;13.60;91.10;;;;;;5102263;28;20206;-86
2022/08/24 02:13:44;;;;;;;5.32;3.28;;;13.50;91.10;;;;;;5106161;28;20211;-85
2022/08/24 02:16:13;;;;;;;3.92;3.60;;;13.50;91.60;;;;;;5112866;28;20677;-85
2022/08/24 02:18:41;;;;;;;3.80;3.42;;;13.40;91.90;;;;;;5109185;28;20196;-85
2022/08/24 02:21:08;;;;;;;3.65;3.35;;;13.40;91.90;;;;;;5104503;28;20292;-85
2022/08/24 02:23:36;;;;;;;3.95;3.50;;;13.40;92.10;;;;;;5116534;28;20199;-85
2022/08/24 02:26:18;;;;;;;4.13;3.55;;;13.40;92.10;;;;;;5112903;28;20215;-86
2022/08/24 02:28:45;;;;;;;4.28;3.50;;;13.30;92.20;;;;;;5114388;28;20214;-85
2022/08/24 02:31:14;;;;;;;4.40;3.67;;;13.30;92.30;;;;;;5110329;28;20200;-85
2022/08/24 02:33:46;;;;;;;7.05;3.80;;;13.30;92.80;;;;;;5120011;28;20204;-85
2022/08/24 02:36:15;;;;;;;5.80;3.60;;;13.30;92.80;;;;;;5118664;28;20220;-85
2022/08/24 02:39:04;;;;;;;4.82;3.78;;;13.20;92.70;;;;;;5118293;28;20206;-86
2022/08/24 02:41:33;;;;;;;4.32;3.92;;;13.20;93.00;;;;;;5107787;28;20203;-86
2022/08/24 02:44:00;;;;;;;6.90;4.40;;;13.10;92.80;;;;;;5110886;28;20665;-85
2022/08/24 02:46:35;;;;;;;5.38;3.42;;;13.10;93.00;;;;;;5119726;28;20267;-85
2022/08/24 02:49:03;;;;;;;4.85;3.63;;;13.00;93.40;;;;;;5120157;28;20203;-86
2022/08/24 02:51:35;;;;;;;6.57;3.70;;;13.00;93.70;;;;;;5109477;28;20231;-85
2022/08/24 02:54:22;;;;;;;6.35;3.60;;;13.10;93.80;;;;;;5105381;28;20742;-86
2022/08/24 02:56:54;;;;;;;5.68;4.30;;;13.00;93.60;;;;;;5110805;28;20303;-86
2022/08/24 02:59:22;;;;;;;3.95;3.55;;;12.90;93.70;;;;;;5108276;28;20197;-86
2022/08/24 03:01:58;;;;;;;3.97;3.67;;;12.90;93.80;;;;;;5121100;28;20231;-85
2022/08/24 03:04:25;;;;;;;5.65;4.07;;;12.90;94.30;;;;;;5115427;28;20685;-86
2022/08/24 03:06:52;;;;;;;5.82;4.22;;;12.80;94.40;;;;;;5120025;28;20204;-86
2022/08/24 03:09:22;;;;;;;4.85;4.13;;;12.70;94.50;;;;;;5113152;28;20651;-85
2022/08/24 03:11:54;;;;;;;6.05;4.07;;;12.60;94.70;;;;;;5103448;28;20640;-85
2022/08/24 03:14:22;;;;;;;4.53;4.10;;;12.60;95.00;;;;;;5109584;28;20216;-86
2022/08/24 03:16:49;;;;;;;5.20;4.65;;;12.60;95.70;;;;;;5119151;28;20219;-85
2022/08/24 03:19:16;;;;;;;5.43;4.38;;;12.60;95.70;;;;;;5113072;28;20206;-85
2022/08/24 03:21:43;;;;;;;4.32;3.90;;;12.60;95.40;;;;;;5121090;28;20603;-85
2022/08/24 03:24:10;;;;;;;4.85;4.45;;;12.70;95.20;;;;;;5115157;28;20283;-85
2022/08/24 03:26:46;;;;;;;5.10;3.95;;;12.70;95.10;;;;;;5124658;28;20211;-86
2022/08/24 03:29:15;;;;;;;4.68;4.28;;;12.70;94.80;;;;;;5116417;28;20234;-85
2022/08/24 03:31:42;;;;;;;4.63;4.10;;;12.70;95.00;;;;;;5125065;28;20206;-85
2022/08/24 03:34:12;;;;;;;4.30;3.90;;;12.70;95.50;;;;;;5120135;28;20201;-85
2022/08/24 03:36:40;;;;;;;5.32;4.40;;;12.70;95.40;;;;;;5110760;28;20220;-85
2022/08/24 03:39:07;;;;;;;4.72;4.20;;;12.70;95.10;;;;;;5118612;28;20205;-86
2022/08/24 03:41:34;;;;;;;5.57;4.28;;;12.70;94.90;;;;;;5114699;28;20199;-85
2022/08/24 03:44:01;;;;;;;5.20;4.70;;;12.60;94.80;;;;;;5108290;27;20251;-85
2022/08/24 03:46:31;;;;;;;5.05;4.55;;;12.60;94.80;;;;;;5115121;28;20272;-85
2022/08/24 03:48:59;;;;;;;4.97;4.57;;;12.60;95.00;;;;;;5122563;28;20618;-86
2022/08/24 03:51:52;;;;;;;6.70;4.65;;;12.60;95.20;;;;;;5117971;28;20292;-85
2022/08/24 03:54:19;;;;;;;4.97;4.55;;;12.50;95.50;;;;;;5113969;28;20286;-86
2022/08/24 03:56:46;;;;;;;4.47;4.07;;;12.50;95.50;;;;;;5107488;28;20848;-86
2022/08/24 03:59:13;;;;;;;4.60;4.13;;;12.50;95.60;;;;;;5120979;28;20235;-85
2022/08/24 04:02:00;;;;;;;5.18;4.70;;;12.60;95.10;;;;;;5114878;28;20279;-85
2022/08/24 04:04:28;;;;;;;9.05;5.13;;;12.60;94.90;;;;;;5124116;28;20208;-86
2022/08/24 04:06:56;;;;;;;5.45;4.93;;;12.50;95.10;;;;;;5115741;28;20283;-86
2022/08/24 04:09:23;;;;;;;5.78;5.00;;;12.40;95.30;;;;;;5108966;28;20211;-86
2022/08/24 04:11:59;;;;;;;5.25;4.80;;;12.30;95.60;;;;;;5124535;27;20253;-85
2022/08/24 04:14:28;;;;;;;5.03;4.30;;;12.30;95.80;;;;;;5126175;28;20206;-85
2022/08/24 04:16:55;;;;;;;4.85;4.35;;;12.40;95.90;;;;;;5123662;28;20233;-85
2022/08/24 04:19:24;;;;;;;5.03;4.47;;;12.50;95.70;;;;;;5124705;28;20204;-85
2022/08/24 04:21:51;;;;;;;5.05;4.60;;;12.50;95.50;;;;;;5116075;28;20199;-86
2022/08/24 04:24:22;;;;;;;5.88;4.35;;;12.50;95.60;;;;;;5120342;28;20264;-85
2022/08/24 04:26:58;;;;;;;4.60;4.15;;;12.40;95.70;;;;;;5124247;28;20654;-85
2022/08/24 04:29:28;;;;;;;5.18;4.53;;;12.40;96.00;;;;;;5123414;28;20206;-85
2022/08/24 04:32:46;;;;;;;4.80;4.40;;;12.30;96.50;;;;;;5123630;28;20208;-85
2022/08/24 04:35:14;;;;;;;6.75;4.68;;;12.30;96.30;;;;;;5125350;28;20199;-85
2022/08/24 04:37:46;;;;;;;4.40;3.97;;;12.30;96.30;;;;;;5124874;28;20230;-86
2022/08/24 04:40:14;;;;;;;8.65;4.95;;;12.30;96.30;;;;;;5125035;28;20225;-86
2022/08/24 04:42:41;;;;;;;7.82;4.72;;;12.40;96.30;;;;;;5114535;28;20223;-86
2022/08/24 04:45:16;;;;;;;5.32;4.75;;;12.40;96.30;;;;;;5123688;28;20223;-86
2022/08/24 04:47:44;;;;;;;6.90;4.45;;;12.50;96.30;;;;;;5125625;28;20195;-85
2022/08/24 04:50:24;;;;;;;5.25;4.20;;;12.50;95.90;;;;;;5123872;28;20225;-85
2022/08/24 04:52:51;;;;;;;5.43;4.35;;;12.70;95.00;;;;;;5125677;28;20221;-85
2022/08/24 04:55:18;;;;;;;4.38;3.97;;;12.80;94.40;;;;;;5121240;28;20219;-85
2022/08/24 04:57:46;;;;;;;4.70;4.30;;;12.90;94.30;;;;;;5115304;28;20250;-85
2022/08/24 05:00:14;;;;;;;4.53;4.10;;;12.90;94.40;;;;;;5118816;28;20278;-86
2022/08/24 05:02:41;;;;;;;4.93;3.88;;;12.80;94.50;;;;;;5125479;28;20196;-85
2022/08/24 05:05:09;;;;;;;5.00;4.20;;;12.90;94.40;;;;;;5125306;28;20236;-85
2022/08/24 05:07:38;;;;;;;4.05;3.75;;;12.90;93.80;;;;;;5124899;27;20263;-85
2022/08/24 05:10:07;;;;;;;6.00;4.13;;;13.00;93.40;;;;;;5123844;28;20199;-85
2022/08/24 05:12:34;;;;;;;4.38;3.97;;;13.00;93.70;;;;;;5119606;28;20223;-85
2022/08/24 05:15:01;;;;;;;4.20;3.80;;;12.90;93.30;;;;;;5116282;28;20298;-87
2022/08/24 05:17:28;;;;;;;6.50;4.38;;;12.90;93.40;;;;;;5122717;28;20299;-85
2022/08/24 05:19:57;;;;;;;7.53;3.92;;;12.90;93.60;;;;;;5123897;28;20271;-86
2022/08/24 05:22:24;;;;;;;5.55;3.85;;;12.90;92.00;;;;;;5121034;28;20200;-85
2022/08/24 05:25:06;;;;;;;5.13;3.75;;;13.00;91.80;;;;;;5104876;28;20262;-85
2022/08/24 05:27:33;;;;;;;4.35;3.95;;;13.00;92.00;;;;;;5120056;28;20546;-86
2022/08/24 05:30:02;;;;;;;4.13;3.72;;;13.10;92.20;;;;;;5105141;28;20653;-86
2022/08/24 05:32:28;;;;;;;4.05;3.63;;;13.10;91.90;;;;;;5104045;28;20200;-85
2022/08/24 05:35:00;;;;;;;5.32;3.92;;;13.20;92.10;;;;;;5105294;28;20196;-85
2022/08/24 05:37:28;;;;;;;4.28;3.67;;;13.20;91.60;;;;;;5103146;28;20340;-85
2022/08/24 05:39:55;;;;;;;4.30;3.63;;;13.30;91.60;;;;;;5108131;28;20200;-85
2022/08/24 05:42:24;;;;;;;4.63;3.33;;;13.40;91.70;;;;;;5122189;28;20227;-86
2022/08/24 05:44:51;;;;;;;3.67;3.38;;;13.40;91.30;;;;;;5103829;28;20231;-86
2022/08/24 05:47:18;;;;;;;4.72;3.53;;;13.50;91.10;;;;;;5103043;28;20208;-86
2022/08/24 05:49:44;;;;;;;4.03;3.60;;;13.50;91.10;;;;;;5105317;28;20192;-86
2022/08/24 05:52:11;;;;;;;5.18;3.83;;;13.60;91.10;;;;;;5120486;28;20207;-86
2022/08/24 05:54:39;;;;;;;4.30;3.58;;;13.70;91.10;;;;;;5116735;28;20287;-86
2022/08/24 05:57:06;;;;;;;5.47;3.78;;;13.80;91.20;;;;;;5106364;28;20227;-86
2022/08/24 05:59:34;;;;;;;4.20;3.45;;;13.90;90.80;;;;;;5115015;28;20283;-86
2022/08/24 06:02:01;;;;;;;4.25;3.42;;;14.00;90.20;;;;;;5108183;28;20204;-86
2022/08/24 06:04:28;;;;;;;4.10;3.35;;;14.10;90.30;;;;;;5095512;28;20205;-86
2022/08/24 06:06:55;;;;;;;5.10;3.53;;;14.20;89.60;;;;;;5106700;28;20205;-86
2022/08/24 06:09:22;;;;;;;3.97;3.50;;;14.30;90.00;;;;;;5095246;28;20689;-86
2022/08/24 06:11:49;;;;;;;4.38;3.55;;;14.30;89.20;;;;;;5098649;28;20204;-86
2022/08/24 06:14:18;;;;;;;5.40;3.22;;;14.50;88.10;;;;;;5096682;28;20306;-87
2022/08/24 06:16:47;;;;;;;3.72;3.42;;;14.60;87.90;;;;;;5096289;28;20282;-86
2022/08/24 06:19:16;;;;;;;4.47;3.33;;;14.70;87.70;;;;;;5109597;28;20223;-86
2022/08/24 06:21:45;;;;;;;4.50;3.60;;;14.80;87.70;;;;;;5102671;28;20204;-86
2022/08/24 06:24:14;;;;;;;5.25;3.20;;;15.00;86.80;;;;;;5093063;28;20201;-86
2022/08/24 06:29:42;;;;;;;3.42;2.92;;;15.30;81.30;;;;;;5097803;28;20677;-87
2022/08/24 06:32:10;;;;;;;4.18;3.13;;;15.50;80.70;;;;;;5108087;28;20200;-86
2022/08/24 06:34:38;;;;;;;3.20;2.90;;;15.60;71.80;;;;;;5097103;28;20204;-86
2022/08/24 06:37:05;;;;;;;5.20;2.85;;;15.70;77.70;;;;;;5097558;28;20239;-86
2022/08/24 06:39:32;;;;;;;3.28;2.70;;;15.80;77.80;;;;;;5096009;28;20232;-86
2022/08/24 06:41:59;;;;;;;2.95;2.60;;;15.80;77.10;;;;;;5098043;28;20566;-86
2022/08/24 06:44:26;;;;;;;3.13;2.80;;;15.90;76.30;;;;;;5100166;28;20250;-86
2022/08/24 06:46:53;;;;;;;3.35;3.05;;;16.00;75.20;;;;;;5113589;28;20235;-86
2022/08/24 06:49:24;;;;;;;3.08;2.65;;;16.10;73.40;;;;;;5110276;28;20235;-86
2022/08/24 06:51:51;;;;;;;3.72;2.70;;;16.30;70.00;;;;;;5105040;28;20724;-86
2022/08/24 06:54:19;;;;;;;3.85;2.67;;;16.60;62.00;;;;;;5110514;28;20248;-86
2022/08/24 06:56:46;;;;;;;2.83;2.50;;;16.80;59.20;;;;;;5117827;28;20647;-86
2022/08/24 06:59:13;;;;;;;3.30;3.00;;;17.00;59.60;;;;;;5117503;28;20224;-86
2022/08/24 07:01:40;;;;;;;6.90;3.00;;;17.20;55.20;;;;;;5116827;28;20208;-86
2022/08/24 07:04:10;;;;;;;4.80;2.60;;;17.30;54.80;;;;;;5118515;28;20275;-86
2022/08/24 07:06:49;;;;;;;5.22;2.70;;;17.30;55.80;;;;;;5116426;27;20239;-86
2022/08/24 07:09:16;;;;;;;3.63;2.80;;;17.50;53.60;;;;;;5118816;28;20203;-86
2022/08/24 07:11:44;;;;;;;4.80;2.85;;;17.60;53.80;;;;;;5111813;28;20609;-86
2022/08/24 07:14:10;;;;;;;4.25;3.00;;;17.80;53.90;;;;;;5097853;28;20197;-86
2022/08/24 07:16:38;;;;;;;5.70;2.65;;;17.90;52.20;;;;;;5108802;28;20219;-86
2022/08/24 07:19:07;;;;;;;5.55;2.83;;;18.00;51.30;;;;;;5115669;28;20238;-86
2022/08/24 07:21:44;;;;;;;6.82;3.00;;;18.00;54.10;;;;;;5117712;28;20198;-85
2022/08/24 07:24:13;;;;;;;5.28;2.90;;;18.20;53.90;;;;;;5116870;28;20212;-86
2022/08/24 07:26:41;;;;;;;5.22;3.03;;;18.30;53.60;;;;;;5117491;28;20196;-86
2022/08/24 07:29:15;;;;;;;5.55;2.85;;;18.40;49.10;;;;;;5116852;28;20203;-86
2022/08/24 07:32:08;;;;;;;5.78;2.80;;;18.50;49.20;;;;;;5107252;28;20204;-86
2022/08/24 07:34:37;;;;;;;2.50;2.30;;;18.50;48.50;;;;;;5097990;28;20208;-86
2022/08/24 07:37:08;;;;;;;4.18;2.55;;;18.50;48.30;;;;;;5102871;28;20472;-86
2022/08/24 07:39:37;;;;;;;2.80;2.50;;;18.70;49.50;;;;;;5104378;28;20220;-86
2022/08/24 07:42:06;;;;;;;4.38;2.78;;;18.80;46.40;;;;;;5108354;28;20207;-86
2022/08/24 07:44:34;;;;;;;3.60;2.72;;;18.80;50.00;;;;;;5110580;28;20223;-86
2022/08/24 07:47:01;;;;;;;7.32;2.47;;;18.80;49.20;;;;;;5115355;28;20202;-86
2022/08/24 07:49:29;;;;;;;2.58;2.38;;;18.90;43.90;;;;;;5112803;28;20211;-86
2022/08/24 07:51:56;;;;;;;4.28;3.00;;;19.00;43.20;;;;;;5108729;28;20210;-86
2022/08/24 07:54:24;;;;;;;4.35;2.53;;;19.00;42.90;;;;;;5107210;28;20205;-87
2022/08/24 07:56:53;;;;;;;2.60;2.40;;;19.10;40.20;;;;;;5108869;28;20208;-86
2022/08/24 07:59:21;;;;;;;3.38;2.50;;;19.30;40.30;;;;;;5105663;28;20224;-86
2022/08/24 08:01:51;;;;;;;3.10;2.60;;;19.40;37.60;;;;;;5104959;28;20200;-86
2022/08/24 08:04:25;;;;;;;2.63;2.40;;;19.40;37.30;;;;;;5105300;27;20613;-86
2022/08/24 08:06:54;;;;;;;3.70;2.20;;;19.60;37.40;;;;;;5108593;28;20220;-86
2022/08/24 08:09:21;;;;;;;4.55;2.67;;;19.60;37.20;;;;;;5108936;28;20201;-86
2022/08/24 08:11:54;;;;;;;3.90;2.50;;;19.70;33.10;;;;;;5111600;28;20208;-86
2022/08/24 08:14:23;;;;;;;3.20;2.47;;;19.70;36.60;;;;;;5100323;28;20212;-86
2022/08/24 08:16:50;;;;;;;4.13;2.13;;;19.70;36.00;;;;;;5099360;28;20207;-86
2022/08/24 08:19:20;;;;;;;4.50;2.58;;;19.70;37.40;;;;;;5111395;28;20311;-87
2022/08/24 08:24:43;;;;;;;4.95;2.42;;;19.90;37.60;;;;;;5116739;28;20206;-86
2022/08/24 08:27:15;;;;;;;3.70;2.38;;;20.10;33.50;;;;;;5118021;28;20662;-86
2022/08/24 08:29:52;;;;;;;4.20;2.60;;;20.20;34.00;;;;;;5117570;28;20208;-86
2022/08/24 08:32:23;;;;;;;4.03;2.60;;;20.30;34.20;;;;;;5104638;28;20681;-87
2022/08/24 08:34:53;;;;;;;2.85;2.58;;;20.40;34.30;;;;;;5117643;28;20219;-86
2022/08/24 08:37:24;;;;;;;5.93;2.78;;;20.40;36.10;;;;;;5105985;28;20196;-86
2022/08/24 08:39:53;;;;;;;5.28;2.70;;;20.70;36.60;;;;;;5110968;28;20299;-86
2022/08/24 08:42:37;;;;;;;3.25;2.80;;;20.80;33.60;;;;;;5109014;28;20200;-86
2022/08/24 08:45:20;;;;;;;2.95;2.35;;;20.80;32.70;;;;;;5104132;28;20726;-87
2022/08/24 08:48:18;;;;;;;2.92;2.45;;;20.80;35.00;;;;;;5102989;28;20210;-87
2022/08/24 08:51:10;;;;;;;7.47;2.80;;;21.00;33.80;;;;;;5097644;28;20298;-86
2022/08/24 08:54:09;;;;;;;2.78;2.58;;;21.10;36.20;;;;;;5103606;28;20212;-84
2022/08/24 08:56:46;;;;;;;5.25;2.60;;;21.30;33.20;;;;;;5105100;28;20200;-85
2022/08/24 08:59:31;;;;;;;5.43;2.70;;;21.60;33.40;;;;;;5105546;28;20224;-85
2022/08/24 09:02:18;;;;;;;4.00;2.58;;;21.80;30.90;;;;;;5102117;28;20212;-85
2022/08/24 09:05:00;;;;;;;3.28;2.70;;;22.10;29.60;;;;;;5105195;28;20199;-85
2022/08/24 09:07:46;;;;;;;2.97;2.67;;;22.20;30.10;;;;;;5110252;28;20203;-85
2022/08/24 09:10:32;;;;;;;3.33;2.50;;;22.50;29.00;;;;;;5102534;28;20200;-85
2022/08/24 09:13:11;;;;;;;2.70;2.50;;;23.10;26.90;;;;;;5104496;28;20201;-83
2022/08/24 09:16:00;;;;;;;3.30;2.67;;;24.70;22.10;;;;;;5105642;28;20196;-83
2022/08/24 09:18:47;;;;;;;18.65;16.70;;;26.70;16.90;;;;;;5108770;28;20219;-83
2022/08/24 09:21:41;;;;;;;2.70;2.50;;;28.30;15.80;;;;;;5114127;28;20252;-84
2022/08/24 09:24:26;;;;;;;3.85;3.00;;;30.10;12.90;;;;;;5113919;28;20235;-84
2022/08/24 09:27:04;;;;;;;4.30;3.38;;;30.90;9.70;;;;;;5113840;28;20571;-85
2022/08/24 09:29:53;;;;;;;4.40;2.85;;;30.60;10.50;;;;;;5096048;28;20207;-85
2022/08/24 09:32:36;;;;;;;3.33;2.90;;;30.40;10.60;;;;;;5109401;28;20199;-85
2022/08/24 09:35:05;;;;;;;3.03;2.80;;;30.80;10.20;;;;;;5098553;28;20204;-85
2022/08/24 09:37:51;;;;;;;3.20;2.92;;;30.90;10.20;;;;;;5108200;28;20203;-85
2022/08/24 09:40:37;;;;;;;6.00;3.28;;;32.20;8.10;;;;;;5104971;28;20200;-85
2022/08/24 09:43:37;;;;;;;4.55;4.15;;;32.10;8.10;;;;;;5101197;28;20196;-85
2022/08/24 09:46:20;;;;;;;14.00;12.65;;;31.80;10.30;;;;;;5115581;28;20207;-85
2022/08/24 09:49:16;;;;;;;4.78;3.28;;;32.10;9.20;;;;;;5110588;28;20206;-85
2022/08/24 09:52:03;;;;;;;4.38;4.00;;;33.90;7.50;;;;;;5099204;28;20312;-85
2022/08/24 09:54:56;;;;;;;6.18;5.65;;;34.00;6.60;;;;;;5118238;28;20209;-85
2022/08/24 09:57:43;;;;;;;3.42;3.17;;;33.00;7.70;;;;;;5106876;28;20230;-85
2022/08/24 10:00:17;;;;;;;4.65;3.40;;;33.00;7.90;;;;;;5115795;28;20303;-85
2022/08/24 10:03:01;;;;;;;4.47;3.80;;;33.00;7.30;;;;;;5117842;28;20199;-85
2022/08/24 10:05:35;;;;;;;4.90;3.35;;;32.40;8.20;;;;;;5115583;28;20206;-86
2022/08/24 10:08:19;;;;;;;3.47;3.28;;;32.30;8.30;;;;;;5111226;28;20263;-85
2022/08/24 10:10:58;;;;;;;3.53;3.33;;;32.00;9.40;;;;;;5111628;28;20206;-85
2022/08/24 10:13:32;;;;;;;3.85;3.55;;;32.10;8.00;;;;;;5110876;28;20199;-86
2022/08/24 10:16:20;;;;;;;3.72;3.42;;;31.60;9.40;;;;;;5117135;28;20195;-85
2022/08/24 10:19:00;;;;;;;3.90;3.50;;;32.40;8.20;;;;;;5100906;27;20632;-85
2022/08/24 10:21:51;;;;;;;3.65;3.35;;;32.90;8.10;;;;;;5105622;28;20327;-85
2022/08/24 10:24:34;;;;;;;6.15;5.65;;;32.50;9.30;;;;;;5115481;28;20582;-85
2022/08/24 10:27:42;;;;;;;4.03;3.72;;;31.00;11.80;;;;;;5116974;28;20199;-85
2022/08/24 10:30:39;;;;;;;4.47;3.20;;;30.50;13.60;;;;;;5055894;28;20202;-85
2022/08/24 10:33:21;;;;;;;4.00;3.50;;;30.30;14.70;;;;;;5056150;28;20193;-85
2022/08/24 10:36:20;;;;;;;8.50;4.95;;;31.30;11.30;;;;;;5052535;28;20200;-85
2022/08/24 10:42:10;;;;;;;5.90;3.20;;;32.70;7.90;;;;;;4991793;28;20230;-85
2022/08/24 10:44:47;;;;;;;4.80;3.30;;;32.50;9.20;;;;;;5004783;28;20226;-85
2022/08/24 10:47:21;;;;;;;4.53;3.30;;;31.40;11.40;;;;;;5004130;28;20325;-85
2022/08/24 10:50:19;;;;;;;3.65;3.35;;;30.80;13.90;;;;;;4992714;28;20195;-85
2022/08/24 10:53:12;;;;;;;6.82;6.10;;;30.10;14.20;;;;;;5004467;28;20210;-85
2022/08/24 10:55:40;;;;;;;5.95;5.38;;;29.40;16.30;;;;;;5004734;28;20203;-85
2022/08/24 10:58:30;;;;;;;3.72;3.40;;;29.00;15.00;;;;;;4990800;28;20200;-84
2022/08/24 11:01:14;;;;;;;6.38;3.72;;;28.00;15.70;;;;;;4992097;28;20225;-84
2022/08/24 11:03:57;;;;;;;4.38;3.40;;;27.10;18.30;;;;;;5009067;28;20202;-84
2022/08/24 11:06:26;;;;;;;3.70;3.40;;;26.50;19.70;;;;;;5025665;28;20620;-84
2022/08/24 11:09:01;;;;;;;3.13;2.80;;;26.20;19.50;;;;;;5049594;28;20197;-84
2022/08/24 11:11:32;;;;;;;4.00;2.83;;;26.10;23.50;;;;;;5046825;28;20204;-84
2022/08/24 11:14:03;;;;;;;5.30;2.88;;;26.40;20.00;;;;;;5051696;28;20259;-84
2022/08/24 11:16:34;;;;;;;3.53;2.88;;;26.40;21.20;;;;;;5114559;28;20195;-84
2022/08/24 11:19:03;;;;;;;4.22;3.00;;;26.20;19.60;;;;;;5116186;28;20223;-84
2022/08/24 11:21:47;;;;;;;3.85;2.70;;;25.90;21.30;;;;;;5117560;28;20234;-84
2022/08/24 11:24:37;;;;;;;3.03;2.75;;;26.00;23.00;;;;;;5113297;28;20204;-81
2022/08/24 11:27:09;;;;;;;3.85;2.80;;;26.10;20.40;;;;;;5115579;28;20203;-81
2022/08/24 11:29:58;;;;;;;7.55;2.72;;;26.10;21.80;;;;;;5105473;28;20286;-81
2022/08/24 11:32:30;;;;;;;4.90;2.90;;;26.30;21.20;;;;;;5097726;28;20203;-81
2022/08/24 11:35:02;;;;;;;3.80;3.00;;;26.60;19.60;;;;;;5099212;28;20227;-81
2022/08/24 11:37:33;;;;;;;5.03;2.70;;;26.50;19.20;;;;;;5102453;28;20223;-81
2022/08/24 11:40:00;;;;;;;4.32;3.38;;;26.10;19.60;;;;;;5113648;28;20223;-81
2022/08/24 11:42:53;;;;;;;3.00;2.35;;;25.90;22.50;;;;;;5116740;28;20191;-81
2022/08/24 11:45:29;;;;;;;4.40;2.95;;;26.10;23.00;;;;;;5055019;28;20312;-81
2022/08/24 11:48:04;;;;;;;3.05;2.75;;;26.30;22.20;;;;;;5055686;28;20212;-81
2022/08/24 11:50:39;;;;;;;3.38;2.70;;;26.50;20.30;;;;;;5054933;28;20216;-81
2022/08/24 11:53:28;;;;;;;2.60;2.40;;;26.60;21.10;;;;;;5054526;28;20292;-82
2022/08/24 11:56:04;;;;;;;3.22;2.80;;;26.60;20.30;;;;;;5057464;28;20201;-81
2022/08/24 11:58:41;;;;;;;2.83;2.63;;;26.60;21.10;;;;;;5059635;28;20684;-81
2022/08/24 12:01:18;;;;;;;3.55;3.20;;;26.70;20.60;;;;;;5061340;28;20194;-83
2022/08/24 12:03:59;;;;;;;3.15;2.80;;;26.80;20.00;;;;;;5060794;28;20198;-82
2022/08/24 12:06:38;;;;;;;3.33;2.90;;;26.90;20.10;;;;;;5060995;28;20694;-82
2022/08/24 12:09:15;;;;;;;3.58;3.10;;;26.60;19.60;;;;;;5056779;28;20198;-82
2022/08/24 12:11:50;;;;;;;4.45;2.60;;;26.10;20.80;;;;;;5056988;28;20578;-81
2022/08/24 12:14:24;;;;;;;3.28;2.60;;;26.20;21.80;;;;;;5055704;28;20204;-82
2022/08/24 12:17:01;;;;;;;3.10;2.80;;;26.40;22.90;;;;;;5058354;28;20205;-82
2022/08/24 12:19:33;;;;;;;3.30;2.70;;;26.40;23.10;;;;;;5054198;28;20230;-82
2022/08/24 12:22:07;;;;;;;5.05;2.58;;;26.50;23.30;;;;;;5079500;28;20206;-82
2022/08/24 12:24:39;;;;;;;3.72;2.97;;;26.60;22.60;;;;;;5116965;28;21881;-82
2022/08/24 12:27:10;;;;;;;4.40;2.53;;;26.60;20.50;;;;;;5106383;28;20192;-82
2022/08/24 12:29:41;;;;;;;2.83;2.63;;;26.80;21.40;;;;;;5121871;28;20218;-82
2022/08/24 12:32:16;;;;;;;2.60;2.35;;;26.80;20.80;;;;;;5117946;28;20207;-81
2022/08/24 12:34:54;;;;;;;3.80;2.80;;;27.00;20.20;;;;;;5118247;28;20203;-82
2022/08/24 12:37:27;;;;;;;2.45;2.28;;;26.70;21.50;;;;;;5116017;28;20693;-82
2022/08/24 12:40:07;;;;;;;3.38;2.50;;;26.50;21.20;;;;;;5116857;28;20258;-82
2022/08/24 12:42:48;;;;;;;2.63;2.40;;;26.50;22.40;;;;;;5113023;28;20658;-82
2022/08/24 12:45:19;;;;;;;5.22;2.42;;;26.20;23.40;;;;;;5118272;28;20223;-82
2022/08/24 12:47:52;;;;;;;2.95;2.63;;;26.20;23.20;;;;;;5119710;28;20267;-81
2022/08/24 12:50:27;;;;;;;4.68;2.67;;;26.20;22.10;;;;;;5119635;28;20670;-82
2022/08/24 12:53:29;;;;;;;3.97;2.50;;;26.30;22.10;;;;;;5111563;28;20199;-82
2022/08/24 12:56:42;;;;;;;3.00;2.63;;;26.20;23.20;;;;;;5116458;28;20199;-82
2022/08/24 12:59:20;;;;;;;2.55;2.35;;;26.20;22.10;;;;;;5050755;28;20198;-82
2022/08/24 13:01:56;;;;;;;3.00;2.25;;;26.10;22.30;;;;;;5052073;28;20240;-82
2022/08/24 13:04:36;;;;;;;3.63;2.08;;;26.10;22.60;;;;;;5055099;28;20202;-81
2022/08/24 13:07:08;;;;;;;3.65;3.22;;;25.90;22.90;;;;;;5053472;28;20209;-82
2022/08/24 13:09:38;;;;;;;3.85;2.60;;;26.20;21.80;;;;;;5055146;28;20209;-82
2022/08/24 13:12:42;;;;;;;2.67;2.42;;;26.20;21.80;;;;;;5056467;28;20198;-82
2022/08/24 13:15:41;;;;;;;3.55;2.38;;;26.10;22.40;;;;;;5048084;28;20345;-82
2022/08/24 13:18:42;;;;;;;2.80;2.60;;;26.10;22.00;;;;;;5050627;28;20615;-82
2022/08/24 13:21:36;;;;;;;3.25;2.33;;;26.10;21.90;;;;;;5052210;28;20279;-82
2022/08/24 13:24:49;;;;;;;2.40;2.20;;;26.30;21.20;;;;;;5051599;28;20202;-82
2022/08/24 13:28:07;;;;;;;2.95;2.20;;;26.40;20.90;;;;;;5042791;28;20202;-82
2022/08/24 13:31:02;;;;;;;5.53;2.42;;;26.50;20.20;;;;;;5055390;28;20208;-82
2022/08/24 13:33:34;;;;;;;2.63;2.35;;;26.80;19.40;;;;;;5055802;28;20209;-81